Time;durP1;ratioP1;P1;durP2;ratioP2;P2;SDS_P1;SDS_P2;PMS_P1;PMS_P2;Temp;Humidity;BMP_temperature;BMP_pressure;BME280_temperature;BME280_humidity;BME280_pressure;Samples;Min_cycle;Max_cycle;Signal;HPM_P1;HPM_P2
2022/05/14 00:00:07;;;;;;;12.85;4.43;;;9.90;99.90;;;;;;6281594;22;20023;-87
2022/05/14 00:02:55;;;;;;;7.22;4.20;;;9.90;99.90;;;;;;6258990;22;20038;-87
2022/05/14 00:05:43;;;;;;;6.07;3.55;;;9.90;99.90;;;;;;6261038;22;20123;-85
2022/05/14 00:08:31;;;;;;;8.25;4.13;;;9.80;99.90;;;;;;6262816;22;20077;-86
2022/05/14 00:14:25;;;;;;;8.68;3.20;;;9.70;99.90;;;;;;6286164;22;20054;-85
2022/05/14 00:17:12;;;;;;;5.60;3.47;;;9.70;99.90;;;;;;6259888;22;20102;-85
2022/05/14 00:20:01;;;;;;;11.52;3.60;;;9.70;99.90;;;;;;6277601;22;20434;-88
2022/05/14 00:22:49;;;;;;;6.20;3.10;;;9.80;99.90;;;;;;6281183;22;20081;-85
2022/05/14 00:25:37;;;;;;;10.50;3.58;;;9.70;99.90;;;;;;6257940;22;20027;-84
2022/05/14 00:28:24;;;;;;;6.90;3.63;;;9.80;99.90;;;;;;6256546;22;20054;-85
2022/05/14 00:31:11;;;;;;;9.02;4.38;;;9.90;99.90;;;;;;6281920;22;20023;-86
2022/05/14 00:33:59;;;;;;;11.63;4.55;;;9.80;99.90;;;;;;6255817;22;20391;-85
2022/05/14 00:36:48;;;;;;;6.72;4.10;;;9.70;99.90;;;;;;6281404;22;20034;-87
2022/05/14 00:39:35;;;;;;;6.72;3.20;;;9.60;99.90;;;;;;6259182;22;20125;-85
2022/05/14 00:42:29;;;;;;;10.02;4.10;;;9.50;99.90;;;;;;6259288;22;20392;-86
2022/05/14 00:45:18;;;;;;;8.80;4.18;;;9.50;99.90;;;;;;6279270;22;20032;-88
2022/05/14 00:48:06;;;;;;;13.82;4.05;;;9.40;99.90;;;;;;6257326;22;20028;-86
2022/05/14 00:50:57;;;;;;;7.13;4.00;;;9.40;99.90;;;;;;6281804;22;20057;-87
2022/05/14 00:53:49;;;;;;;4.68;3.40;;;9.30;99.90;;;;;;6283308;22;20020;-83
2022/05/14 00:57:01;;;;;;;10.25;4.40;;;9.30;99.90;;;;;;6293020;22;20096;-87
2022/05/14 00:59:54;;;;;;;9.50;3.95;;;9.30;99.90;;;;;;6291737;22;20075;-88
2022/05/14 01:02:42;;;;;;;13.70;4.30;;;9.30;99.90;;;;;;6288605;22;20027;-87
2022/05/14 01:05:36;;;;;;;12.18;4.35;;;9.30;99.90;;;;;;6288922;22;20032;-85
2022/05/14 01:08:23;;;;;;;13.13;4.10;;;9.20;99.90;;;;;;6285160;22;20025;-86
2022/05/14 01:11:12;;;;;;;5.50;3.92;;;9.20;99.90;;;;;;6282017;22;20089;-88
2022/05/14 01:13:59;;;;;;;8.95;4.10;;;9.20;99.90;;;;;;6259630;22;20023;-85
2022/05/14 01:16:47;;;;;;;7.57;3.78;;;9.10;99.90;;;;;;6281110;22;20030;-87
2022/05/14 01:19:34;;;;;;;5.65;3.78;;;9.10;99.90;;;;;;6281530;22;20031;-86
2022/05/14 01:22:46;;;;;;;10.45;4.55;;;9.00;99.90;;;;;;6259365;22;20104;-86
2022/05/14 01:28:42;;;;;;;9.02;3.70;;;8.80;99.90;;;;;;6280197;22;20046;-88
2022/05/14 01:31:30;;;;;;;6.68;3.40;;;8.80;99.90;;;;;;6279105;22;20081;-87
2022/05/14 01:34:27;;;;;;;8.40;4.30;;;8.90;99.90;;;;;;6277229;22;20024;-86
2022/05/14 01:37:18;;;;;;;5.20;3.20;;;8.90;99.90;;;;;;6281330;22;20101;-87
2022/05/14 01:40:06;;;;;;;10.13;3.30;;;8.90;99.90;;;;;;6284425;22;20023;-86
2022/05/14 01:42:55;;;;;;;7.05;3.65;;;8.90;99.90;;;;;;6293297;22;20012;-85
2022/05/14 01:45:43;;;;;;;7.07;3.50;;;8.80;99.90;;;;;;6297493;22;20023;-88
2022/05/14 01:48:33;;;;;;;6.07;3.83;;;8.80;99.90;;;;;;6293061;22;20043;-88
2022/05/14 01:51:20;;;;;;;5.35;3.10;;;8.70;99.90;;;;;;6282743;22;20028;-87
2022/05/14 01:54:08;;;;;;;8.35;2.97;;;8.70;99.90;;;;;;6280251;22;20484;-87
2022/05/14 01:56:55;;;;;;;6.22;3.75;;;8.70;99.90;;;;;;6281051;22;20085;-86
2022/05/14 01:59:42;;;;;;;8.70;4.35;;;8.60;99.90;;;;;;6279414;22;20415;-85
2022/05/14 02:02:29;;;;;;;5.07;3.35;;;8.60;99.90;;;;;;6277605;22;20096;-87
2022/05/14 02:05:20;;;;;;;5.38;3.58;;;8.60;99.90;;;;;;6275968;22;20035;-86
2022/05/14 02:08:07;;;;;;;7.22;4.07;;;8.60;99.90;;;;;;6277341;22;20031;-87
2022/05/14 02:10:55;;;;;;;11.05;3.60;;;8.50;99.90;;;;;;6278376;22;20024;-86
2022/05/14 02:13:43;;;;;;;9.23;3.88;;;8.50;99.90;;;;;;6276334;22;20366;-86
2022/05/14 02:16:31;;;;;;;8.65;3.08;;;8.50;99.90;;;;;;6278264;22;20401;-86
2022/05/14 02:19:21;;;;;;;8.90;3.63;;;8.50;99.90;;;;;;6276023;22;20055;-87
2022/05/14 02:22:08;;;;;;;14.32;4.03;;;8.50;99.90;;;;;;6276864;22;20430;-85
2022/05/14 02:24:57;;;;;;;6.30;3.70;;;8.50;99.90;;;;;;6276284;22;20046;-86
2022/05/14 02:27:45;;;;;;;7.65;4.13;;;8.50;99.90;;;;;;6254900;22;20058;-86
2022/05/14 02:30:32;;;;;;;7.68;3.35;;;8.50;99.90;;;;;;6275961;22;20024;-86
2022/05/14 02:33:20;;;;;;;6.28;3.28;;;8.50;99.90;;;;;;6274475;22;20367;-85
2022/05/14 02:36:07;;;;;;;5.40;3.25;;;8.50;99.90;;;;;;6277544;22;20023;-86
2022/05/14 02:38:54;;;;;;;8.93;3.45;;;8.50;99.90;;;;;;6274288;22;20073;-87
2022/05/14 02:41:42;;;;;;;11.73;3.45;;;8.50;99.90;;;;;;6276364;22;20350;-87
2022/05/14 02:44:29;;;;;;;7.82;3.40;;;8.50;99.90;;;;;;6257360;22;20027;-87
2022/05/14 02:47:20;;;;;;;4.57;3.13;;;8.60;99.90;;;;;;6274984;22;20485;-86
2022/05/14 02:50:09;;;;;;;10.75;3.22;;;8.60;99.90;;;;;;6278794;22;20059;-85
2022/05/14 02:52:56;;;;;;;4.85;3.10;;;8.60;99.90;;;;;;6275580;22;20335;-87
2022/05/14 02:55:46;;;;;;;5.85;3.17;;;8.60;99.90;;;;;;6273666;22;20409;-86
2022/05/14 03:01:47;;;;;;;6.60;2.92;;;8.50;99.90;;;;;;6275360;22;20020;-85
2022/05/14 03:04:40;;;;;;;9.18;3.33;;;8.50;99.90;;;;;;6277871;22;20038;-85
2022/05/14 03:07:28;;;;;;;7.07;3.43;;;8.40;99.90;;;;;;6277403;22;20065;-84
2022/05/14 03:10:26;;;;;;;11.68;3.40;;;8.30;99.90;;;;;;6275659;22;20239;-87
2022/05/14 03:13:17;;;;;;;9.98;3.67;;;8.30;99.90;;;;;;6274600;22;20043;-87
2022/05/14 03:16:07;;;;;;;8.43;3.95;;;8.30;99.90;;;;;;6278458;22;20023;-86
2022/05/14 03:18:54;;;;;;;9.15;3.90;;;8.30;99.90;;;;;;6275922;22;20272;-87
2022/05/14 03:21:42;;;;;;;14.88;4.95;;;8.20;99.90;;;;;;6274002;22;20019;-85
2022/05/14 03:24:31;;;;;;;9.52;4.72;;;8.20;99.90;;;;;;6255347;22;20032;-86
2022/05/14 03:27:18;;;;;;;10.63;4.50;;;8.20;99.90;;;;;;6274381;22;20024;-86
2022/05/14 03:30:06;;;;;;;13.27;4.30;;;8.20;99.90;;;;;;6276048;22;20051;-85
2022/05/14 03:32:56;;;;;;;8.65;3.58;;;8.20;99.90;;;;;;6274448;22;20028;-84
2022/05/14 03:35:48;;;;;;;10.30;4.00;;;8.20;99.90;;;;;;6275479;22;20370;-86
2022/05/14 03:38:37;;;;;;;8.35;4.40;;;8.30;99.90;;;;;;6278286;22;20024;-86
2022/05/14 03:41:24;;;;;;;5.97;3.80;;;8.40;99.90;;;;;;6274809;22;20118;-87
2022/05/14 03:44:13;;;;;;;7.97;4.53;;;8.30;99.90;;;;;;6278234;22;20023;-85
2022/05/14 03:47:06;;;;;;;10.00;3.55;;;8.30;99.90;;;;;;6276811;22;20028;-86
2022/05/14 03:49:53;;;;;;;7.80;3.90;;;8.20;99.90;;;;;;6255862;22;20039;-86
2022/05/14 03:52:41;;;;;;;8.82;4.30;;;8.20;99.90;;;;;;6276027;22;20030;-85
2022/05/14 03:55:28;;;;;;;7.47;3.90;;;8.20;99.90;;;;;;6276311;22;20043;-85
2022/05/14 03:58:15;;;;;;;13.25;4.38;;;8.00;99.90;;;;;;6257204;22;20303;-88
2022/05/14 04:01:05;;;;;;;12.60;4.07;;;7.90;99.90;;;;;;6278214;22;20023;-87
2022/05/14 04:03:58;;;;;;;7.57;4.32;;;7.80;99.90;;;;;;6280925;22;20038;-85
2022/05/14 04:06:50;;;;;;;9.65;4.18;;;7.70;99.90;;;;;;6280271;22;20427;-87
2022/05/14 04:09:40;;;;;;;9.13;4.57;;;7.60;99.90;;;;;;6277641;22;20027;-85
2022/05/14 04:12:27;;;;;;;9.73;4.70;;;7.60;99.90;;;;;;6256645;22;20027;-86
2022/05/14 04:15:15;;;;;;;8.73;4.63;;;7.70;99.90;;;;;;6280921;22;20055;-88
2022/05/14 04:18:06;;;;;;;12.05;5.50;;;7.70;99.90;;;;;;6278223;22;20028;-87
2022/05/14 04:21:00;;;;;;;12.63;5.25;;;7.80;99.90;;;;;;6262088;22;20303;-87
2022/05/14 04:23:48;;;;;;;7.05;4.00;;;7.80;99.90;;;;;;6285740;22;20083;-84
2022/05/14 04:26:35;;;;;;;9.80;4.50;;;7.90;99.90;;;;;;6289222;22;20039;-85
2022/05/14 04:29:22;;;;;;;6.55;4.63;;;8.00;99.90;;;;;;6296026;22;20089;-84
2022/05/14 04:32:13;;;;;;;14.15;5.35;;;8.00;99.90;;;;;;6284181;22;20415;-85
2022/05/14 04:35:00;;;;;;;8.05;4.75;;;8.10;99.90;;;;;;6277977;22;20024;-86
2022/05/14 04:37:50;;;;;;;10.13;4.63;;;8.10;99.90;;;;;;6268239;22;20399;-84
2022/05/14 04:40:40;;;;;;;6.32;4.55;;;8.20;99.90;;;;;;6289965;22;20328;-84
2022/05/14 04:43:27;;;;;;;13.82;4.10;;;8.20;99.90;;;;;;6261123;22;20030;-86
2022/05/14 04:46:37;;;;;;;6.82;3.80;;;8.20;99.90;;;;;;6280613;22;20042;-84
2022/05/14 04:49:30;;;;;;;9.55;4.97;;;8.20;99.90;;;;;;6269017;22;20035;-84
2022/05/14 04:52:24;;;;;;;8.93;3.83;;;8.30;99.90;;;;;;6262581;23;20036;-86
2022/05/14 04:55:16;;;;;;;9.40;4.20;;;8.40;99.90;;;;;;6243608;23;20024;-85
2022/05/14 04:58:25;;;;;;;9.00;3.60;;;8.50;99.90;;;;;;6235755;23;20017;-82
2022/05/14 05:01:23;;;;;;;6.15;4.15;;;8.50;99.90;;;;;;6231965;23;20126;-86
2022/05/14 05:04:21;;;;;;;10.02;4.15;;;8.60;99.90;;;;;;6228057;23;20103;-83
2022/05/14 05:07:10;;;;;;;8.15;4.30;;;8.80;99.90;;;;;;6225941;23;20089;-86
2022/05/14 05:09:57;;;;;;;9.45;3.70;;;8.90;99.90;;;;;;6246439;23;20028;-84
2022/05/14 05:12:44;;;;;;;7.32;3.67;;;9.00;99.90;;;;;;6225750;23;20024;-85
2022/05/14 05:15:32;;;;;;;8.07;4.18;;;9.10;99.90;;;;;;6222278;23;20035;-84
2022/05/14 05:18:20;;;;;;;7.03;3.83;;;9.20;99.90;;;;;;6246669;23;20131;-84
2022/05/14 05:21:09;;;;;;;11.25;3.75;;;9.20;99.90;;;;;;6223933;23;20057;-87
2022/05/14 05:23:56;;;;;;;7.13;4.07;;;9.30;99.90;;;;;;6225189;23;20462;-86
2022/05/14 05:26:46;;;;;;;12.52;3.88;;;9.40;99.90;;;;;;6246006;23;20028;-85
2022/05/14 05:29:35;;;;;;;5.03;3.53;;;9.40;99.90;;;;;;6241519;23;20123;-87
2022/05/14 05:32:25;;;;;;;8.18;3.53;;;9.50;99.90;;;;;;6247928;23;20032;-84
2022/05/14 05:35:15;;;;;;;6.35;3.65;;;9.70;99.90;;;;;;6229747;23;20035;-86
2022/05/14 05:38:16;;;;;;;7.53;3.63;;;9.80;99.90;;;;;;6246947;23;20028;-86
2022/05/14 05:41:03;;;;;;;3.92;3.10;;;10.00;99.90;;;;;;6248425;23;20090;-87
2022/05/14 05:43:53;;;;;;;8.13;3.25;;;10.20;99.90;;;;;;6249255;23;20020;-88
2022/05/14 05:46:43;;;;;;;5.75;2.83;;;10.50;99.90;;;;;;6248501;23;20384;-84
2022/05/14 05:49:30;;;;;;;6.43;3.35;;;10.60;99.90;;;;;;6234666;23;20031;-88
2022/05/14 05:52:32;;;;;;;7.88;2.90;;;10.70;99.90;;;;;;6257251;23;20031;-86
2022/05/14 05:58:28;;;;;;;6.68;2.88;;;11.00;99.90;;;;;;6244583;23;20035;-87
2022/05/14 06:01:18;;;;;;;8.82;3.05;;;11.20;99.90;;;;;;6244930;23;20020;-86
2022/05/14 06:04:08;;;;;;;9.95;3.05;;;11.30;99.90;;;;;;6225560;23;20039;-86
2022/05/14 06:06:59;;;;;;;4.43;2.75;;;11.60;99.90;;;;;;6245522;23;20024;-88
2022/05/14 06:09:47;;;;;;;7.03;2.90;;;11.80;99.90;;;;;;6248969;23;20039;-89
2022/05/14 06:12:38;;;;;;;7.40;2.72;;;11.80;99.90;;;;;;6246723;23;20032;-87
2022/05/14 06:16:02;;;;;;;7.90;2.95;;;12.00;99.90;;;;;;6244010;23;20027;-87
2022/05/14 06:19:34;;;;;;;8.68;2.60;;;12.30;99.90;;;;;;6227584;23;20043;-86
2022/05/14 06:26:42;;;;;;;5.25;2.35;;;12.90;99.90;;;;;;6245419;23;20008;-84
2022/05/14 06:37:48;;;;;;;7.57;2.20;;;13.80;99.90;;;;;;6134501;23;20026;-84
2022/05/14 06:40:37;;;;;;;4.43;1.73;;;14.20;99.90;;;;;;6212433;23;20106;-86
2022/05/14 06:43:26;;;;;;;2.95;1.60;;;14.50;99.90;;;;;;6248355;23;20024;-88
2022/05/14 06:46:19;;;;;;;2.63;1.58;;;15.00;99.90;;;;;;6226631;23;20051;-88
2022/05/14 06:49:20;;;;;;;8.35;1.90;;;15.40;99.90;;;;;;6250236;23;20100;-87
2022/05/14 06:52:13;;;;;;;4.63;1.60;;;15.60;99.90;;;;;;6250114;23;20082;-86
2022/05/14 06:55:01;;;;;;;4.72;1.48;;;15.80;99.90;;;;;;6249965;23;20103;-88
2022/05/14 06:57:52;;;;;;;3.72;1.20;;;16.20;99.90;;;;;;6249143;23;20062;-87
2022/05/14 07:00:40;;;;;;;2.38;1.30;;;16.60;99.90;;;;;;6228868;23;20020;-88
2022/05/14 07:06:43;;;;;;;3.83;1.30;;;17.20;98.20;;;;;;6253201;23;20048;-84
2022/05/14 07:09:30;;;;;;;4.05;1.10;;;17.70;97.80;;;;;;6230109;23;20020;-86
2022/05/14 07:12:19;;;;;;;4.95;1.27;;;18.00;92.00;;;;;;6239355;23;20028;-84
2022/05/14 07:15:09;;;;;;;4.22;1.58;;;18.30;89.10;;;;;;6267800;22;20024;-81
2022/05/14 07:17:56;;;;;;;3.00;0.90;;;18.50;92.80;;;;;;6267055;23;20024;-85
2022/05/14 07:20:43;;;;;;;7.25;1.20;;;18.50;82.50;;;;;;6253628;23;20481;-88
2022/05/14 07:23:30;;;;;;;2.05;1.10;;;18.20;81.70;;;;;;6253930;23;20028;-87
2022/05/14 07:26:21;;;;;;;8.45;1.17;;;18.40;77.90;;;;;;6256522;23;20027;-90
2022/05/14 07:29:14;;;;;;;4.63;0.90;;;18.60;79.10;;;;;;6241297;23;20027;-88
2022/05/14 07:32:03;;;;;;;5.25;1.02;;;19.40;84.50;;;;;;6219459;23;20028;-90
2022/05/14 07:34:52;;;;;;;6.70;1.05;;;19.60;70.10;;;;;;6256017;23;20036;-87
2022/05/14 07:37:46;;;;;;;5.97;0.90;;;19.90;71.70;;;;;;6265400;23;20024;-90
2022/05/14 07:40:37;;;;;;;4.80;0.90;;;20.20;66.50;;;;;;6263041;23;20408;-89
2022/05/14 07:43:30;;;;;;;3.25;0.70;;;20.70;73.50;;;;;;6264170;23;20020;-90
2022/05/14 07:46:28;;;;;;;3.03;0.90;;;21.90;72.50;;;;;;6263960;23;20021;-82
2022/05/14 07:49:26;;;;;;;3.28;0.95;;;21.80;61.10;;;;;;6268715;22;20016;-83
2022/05/14 07:52:44;;;;;;;5.53;1.30;;;22.00;59.50;;;;;;6265384;22;20050;-87
2022/05/14 07:55:33;;;;;;;1.92;0.70;;;22.40;60.70;;;;;;6262636;23;20719;-91
2022/05/14 07:58:24;;;;;;;3.92;0.80;;;22.40;56.30;;;;;;6263312;23;20030;-86
2022/05/14 08:01:14;;;;;;;6.60;1.00;;;22.20;58.30;;;;;;6260369;23;20040;-89
2022/05/14 08:04:03;;;;;;;3.03;0.63;;;22.20;56.90;;;;;;6238860;23;20038;-91
2022/05/14 08:06:56;;;;;;;2.90;0.90;;;22.40;56.80;;;;;;6254550;23;20029;-91
2022/05/14 08:09:52;;;;;;;3.53;1.05;;;22.90;53.40;;;;;;6254625;23;20074;-89
2022/05/14 08:12:45;;;;;;;6.50;0.82;;;22.40;55.70;;;;;;6250751;23;20035;-87
2022/05/14 08:15:49;;;;;;;7.30;1.13;;;22.00;53.90;;;;;;6259531;23;20043;-89
2022/05/14 08:18:45;;;;;;;4.13;1.08;;;21.50;55.30;;;;;;6250471;23;20028;-89
2022/05/14 08:25:07;;;;;;;4.32;0.90;;;22.80;54.40;;;;;;6255547;23;20032;-84
2022/05/14 08:27:57;;;;;;;5.90;1.20;;;23.00;49.20;;;;;;6252413;23;20032;-86
2022/05/14 08:35:04;;;;;;;;;;;;;;;;;;;;;
2022/05/14 08:38:28;;;;;;;3.58;1.08;;;24.70;50.10;;;;;;6260589;23;20024;-88
2022/05/14 08:41:38;;;;;;;2.83;0.90;;;25.60;51.10;;;;;;6256635;23;20028;-90
2022/05/14 08:44:32;;;;;;;3.00;1.05;;;26.30;53.20;;;;;;6256700;23;20024;-87
2022/05/14 08:47:57;;;;;;;3.45;0.80;;;26.60;45.90;;;;;;6252763;23;20039;-88
2022/05/14 08:50:49;;;;;;;5.30;1.20;;;26.50;45.20;;;;;;6247588;23;20051;-84
2022/05/14 08:53:38;;;;;;;2.92;0.93;;;26.90;44.20;;;;;;6258354;23;20031;-87
2022/05/14 08:56:32;;;;;;;2.88;1.35;;;27.10;43.70;;;;;;6248172;23;20035;-85
2022/05/14 08:59:44;;;;;;;3.50;0.77;;;25.00;45.30;;;;;;6256190;23;20059;-89
2022/05/14 09:02:39;;;;;;;3.58;1.10;;;24.60;51.30;;;;;;6235319;23;20095;-88
2022/05/14 09:05:35;;;;;;;5.03;1.00;;;25.20;47.40;;;;;;6230176;23;20040;-84
2022/05/14 09:08:26;;;;;;;3.90;1.00;;;25.40;48.40;;;;;;6251589;23;20031;-91
2022/05/14 09:11:37;;;;;;;4.20;1.10;;;26.30;43.40;;;;;;6252313;23;20028;-91
2022/05/14 09:14:32;;;;;;;4.68;1.10;;;26.30;44.30;;;;;;6251049;22;20435;-88
2022/05/14 09:17:22;;;;;;;6.93;1.00;;;25.90;45.60;;;;;;6252769;23;20024;-88
2022/05/14 09:20:10;;;;;;;2.70;1.10;;;25.10;47.00;;;;;;6253211;23;20032;-90
2022/05/14 09:22:57;;;;;;;5.15;1.20;;;25.00;47.90;;;;;;6250768;23;20099;-89
2022/05/14 09:25:45;;;;;;;3.30;1.10;;;25.00;46.80;;;;;;6251664;23;20352;-87
2022/05/14 09:28:51;;;;;;;2.28;1.15;;;25.40;47.90;;;;;;6250972;23;20024;-90
2022/05/14 09:31:55;;;;;;;4.50;1.23;;;26.40;45.70;;;;;;6231185;23;20403;-91
2022/05/14 09:34:44;;;;;;;3.33;1.10;;;27.20;46.80;;;;;;6229766;23;20070;-92
2022/05/14 09:38:07;;;;;;;6.78;1.20;;;28.10;43.40;;;;;;6248510;23;20019;-89
2022/05/14 09:41:07;;;;;;;5.05;1.45;;;27.70;39.90;;;;;;6229668;23;20024;-87
2022/05/14 09:43:59;;;;;;;2.92;1.10;;;26.60;44.40;;;;;;6250183;22;20047;-90
2022/05/14 09:46:47;;;;;;;8.50;1.48;;;26.00;44.30;;;;;;6250527;23;20027;-87
2022/05/14 09:49:39;;;;;;;2.35;1.13;;;26.00;41.80;;;;;;6255836;23;20055;-88
2022/05/14 09:52:34;;;;;;;2.08;0.88;;;25.60;45.90;;;;;;6228995;23;20055;-89
2022/05/14 09:55:24;;;;;;;4.72;1.05;;;26.40;41.60;;;;;;6228076;23;20345;-87
2022/05/14 09:58:39;;;;;;;9.27;0.90;;;27.20;43.90;;;;;;6232340;23;20024;-89
2022/05/14 10:01:45;;;;;;;5.18;1.20;;;28.40;40.40;;;;;;6239532;23;20020;-88
2022/05/14 10:04:43;;;;;;;4.97;0.60;;;29.20;38.40;;;;;;6264625;22;20411;-81
2022/05/14 10:07:37;;;;;;;5.57;0.93;;;29.80;39.30;;;;;;6262007;23;20118;-89
2022/05/14 10:10:49;;;;;;;3.70;0.80;;;30.10;41.80;;;;;;6246232;23;20035;-88
2022/05/14 10:14:04;;;;;;;2.65;0.73;;;30.30;36.80;;;;;;6250929;23;20031;-91
2022/05/14 10:17:19;;;;;;;2.75;1.00;;;29.40;35.80;;;;;;6246744;23;20404;-89
2022/05/14 10:20:20;;;;;;;2.53;0.90;;;27.60;38.80;;;;;;6224142;23;20305;-88
2022/05/14 10:26:56;;;;;;;6.13;1.42;;;25.40;49.00;;;;;;6245513;23;20143;-88
2022/05/14 10:29:56;;;;;;;5.60;1.10;;;25.40;42.70;;;;;;6223410;23;20165;-87
2022/05/14 10:32:45;;;;;;;3.72;1.50;;;25.20;43.00;;;;;;6246966;23;20062;-88
2022/05/14 10:35:45;;;;;;;2.58;1.15;;;25.60;43.20;;;;;;6249118;22;20131;-90
2022/05/14 10:38:43;;;;;;;4.10;1.20;;;25.20;44.90;;;;;;6249830;22;20100;-87
2022/05/14 10:41:39;;;;;;;4.68;1.10;;;24.80;44.80;;;;;;6225094;23;20031;-88
2022/05/14 10:44:30;;;;;;;2.42;0.70;;;24.90;44.00;;;;;;6225013;23;20047;-88
2022/05/14 10:47:19;;;;;;;9.25;1.10;;;25.20;42.70;;;;;;6248907;23;20059;-90
2022/05/14 10:50:15;;;;;;;5.95;1.17;;;25.30;41.90;;;;;;6248473;23;20028;-89
2022/05/14 10:53:10;;;;;;;4.40;1.27;;;26.40;41.90;;;;;;6237695;23;20051;-86
2022/05/14 10:56:25;;;;;;;3.03;0.80;;;26.50;41.50;;;;;;6257975;23;20119;-93
2022/05/14 10:59:13;;;;;;;2.85;1.00;;;27.30;43.90;;;;;;6240726;23;20053;-87
2022/05/14 11:02:12;;;;;;;4.60;1.08;;;27.80;38.00;;;;;;6258680;23;20035;-91
2022/05/14 11:05:00;;;;;;;1.33;0.80;;;27.40;39.00;;;;;;6260701;22;20028;-85
2022/05/14 11:07:49;;;;;;;4.15;0.77;;;28.60;46.60;;;;;;6263263;23;20049;-90
2022/05/14 11:10:37;;;;;;;3.58;1.20;;;30.40;42.20;;;;;;6243199;23;20024;-88
2022/05/14 11:13:25;;;;;;;2.95;1.23;;;31.10;34.90;;;;;;6268610;22;20024;-82
2022/05/14 11:16:13;;;;;;;4.20;1.20;;;29.60;35.40;;;;;;6243200;23;20028;-87
2022/05/14 11:19:23;;;;;;;3.22;1.00;;;28.30;42.20;;;;;;6235953;23;20020;-89
2022/05/14 11:22:27;;;;;;;4.32;0.90;;;28.80;38.10;;;;;;6258974;23;20028;-89
2022/05/14 11:25:19;;;;;;;2.70;0.70;;;29.70;42.60;;;;;;6249619;23;20020;-89
2022/05/14 11:28:09;;;;;;;6.50;1.42;;;30.70;35.80;;;;;;6229538;23;20020;-89
2022/05/14 11:31:21;;;;;;;2.88;0.80;;;30.50;36.10;;;;;;6251383;23;20130;-89
2022/05/14 11:34:22;;;;;;;2.28;0.73;;;31.00;34.50;;;;;;6251776;23;20093;-86
2022/05/14 11:37:11;;;;;;;1.83;0.73;;;30.60;33.60;;;;;;6247703;23;20408;-89
2022/05/14 11:40:22;;;;;;;3.13;0.95;;;30.80;36.00;;;;;;6249600;23;20028;-88
2022/05/14 11:43:44;;;;;;;3.42;1.02;;;31.80;35.80;;;;;;6251045;22;20032;-91
2022/05/14 11:47:20;;;;;;;3.47;0.73;;;32.10;34.90;;;;;;6250200;23;20535;-89
2022/05/14 11:50:23;;;;;;;1.95;1.00;;;31.80;33.60;;;;;;6231320;23;20380;-88
2022/05/14 11:53:49;;;;;;;5.47;0.70;;;32.30;34.90;;;;;;6248774;23;20446;-90
2022/05/14 11:57:03;;;;;;;2.65;1.10;;;32.40;34.70;;;;;;6250364;23;20040;-90
2022/05/14 12:00:10;;;;;;;3.47;0.85;;;32.70;32.80;;;;;;6247473;23;20036;-89
2022/05/14 12:03:06;;;;;;;2.75;1.00;;;31.20;30.50;;;;;;6250643;23;20028;-89
2022/05/14 12:06:23;;;;;;;1.70;0.68;;;29.40;32.70;;;;;;6249291;23;20395;-88
2022/05/14 12:09:15;;;;;;;5.35;1.00;;;28.60;36.90;;;;;;6248158;23;20035;-87
2022/05/14 12:12:17;;;;;;;2.80;0.70;;;30.10;37.90;;;;;;6229983;23;20150;-88
2022/05/14 12:15:14;;;;;;;2.25;0.98;;;31.30;35.10;;;;;;6246806;23;20032;-86
2022/05/14 12:18:01;;;;;;;6.07;0.93;;;31.50;34.30;;;;;;6253272;22;20062;-88
2022/05/14 12:21:03;;;;;;;1.98;0.85;;;30.80;34.30;;;;;;6231513;23;20028;-89
2022/05/14 12:23:51;;;;;;;4.03;1.10;;;30.60;35.70;;;;;;6249902;23;20032;-88
2022/05/14 12:26:48;;;;;;;3.75;1.25;;;30.80;37.10;;;;;;6250333;23;20035;-89
2022/05/14 12:29:35;;;;;;;6.82;1.02;;;31.10;35.70;;;;;;6251561;23;20039;-91
2022/05/14 12:35:29;;;;;;;4.18;0.90;;;31.60;31.10;;;;;;6249618;23;20024;-88
2022/05/14 12:38:24;;;;;;;3.50;1.05;;;32.10;35.20;;;;;;6248861;23;20055;-85
2022/05/14 12:41:31;;;;;;;3.60;1.08;;;32.10;29.20;;;;;;6246945;23;20039;-87
2022/05/14 12:44:41;;;;;;;4.00;1.08;;;30.30;30.40;;;;;;6257368;22;20056;-84
2022/05/14 12:47:30;;;;;;;3.38;0.75;;;29.70;37.30;;;;;;6248243;22;20042;-82
2022/05/14 12:50:30;;;;;;;4.72;0.82;;;30.40;35.30;;;;;;6254782;22;20266;-86
2022/05/14 12:53:18;;;;;;;2.38;0.70;;;31.00;33.60;;;;;;6292526;22;20044;-88
2022/05/14 12:56:08;;;;;;;3.92;0.73;;;32.30;29.90;;;;;;6291164;22;20050;-87
2022/05/14 12:58:55;;;;;;;2.42;0.75;;;32.30;28.10;;;;;;6273430;22;20019;-82
2022/05/14 13:01:46;;;;;;;2.28;0.90;;;31.70;27.80;;;;;;6299361;22;20065;-81
2022/05/14 13:04:41;;;;;;;1.98;0.77;;;31.50;29.90;;;;;;6291960;22;20264;-83
2022/05/14 13:07:30;;;;;;;2.25;0.90;;;32.10;31.50;;;;;;6291625;22;20019;-89
2022/05/14 13:10:22;;;;;;;2.17;0.90;;;32.40;32.00;;;;;;6290704;22;20024;-85
2022/05/14 13:13:09;;;;;;;2.65;0.80;;;32.60;26.60;;;;;;6269495;22;20019;-86
2022/05/14 13:16:12;;;;;;;2.30;0.95;;;32.40;30.90;;;;;;6290899;22;20474;-84
2022/05/14 13:19:26;;;;;;;2.88;0.80;;;32.90;29.60;;;;;;6282793;22;20024;-88
2022/05/14 13:22:35;;;;;;;3.45;1.40;;;33.00;26.70;;;;;;6279517;22;20082;-87
2022/05/14 13:25:31;;;;;;;1.63;0.60;;;33.00;30.00;;;;;;6260145;22;20019;-89
2022/05/14 13:28:28;;;;;;;6.13;0.73;;;33.70;26.70;;;;;;6281910;22;20028;-90
2022/05/14 13:31:27;;;;;;;4.25;0.70;;;34.40;27.00;;;;;;6253698;22;20020;-89
2022/05/14 13:37:44;;;;;;;4.40;1.23;;;34.50;28.30;;;;;;6276607;22;20049;-90
2022/05/14 13:40:38;;;;;;;4.32;0.88;;;33.70;29.30;;;;;;6277170;22;20047;-89
2022/05/14 13:43:38;;;;;;;1.92;0.77;;;34.10;29.80;;;;;;6277837;22;20027;-90
2022/05/14 13:46:29;;;;;;;3.20;0.98;;;34.20;30.20;;;;;;6278358;22;20131;-89
2022/05/14 13:49:21;;;;;;;2.28;0.80;;;34.00;25.70;;;;;;6255052;22;20111;-87
2022/05/14 13:52:08;;;;;;;4.93;1.20;;;33.30;26.60;;;;;;6253297;22;20028;-89
2022/05/14 13:55:02;;;;;;;4.80;1.08;;;32.60;27.60;;;;;;6253941;22;20127;-86
2022/05/14 13:57:59;;;;;;;3.47;0.95;;;31.30;29.80;;;;;;6254187;22;20350;-88
2022/05/14 14:00:54;;;;;;;4.47;0.90;;;30.70;36.30;;;;;;6276747;22;20095;-88
2022/05/14 14:03:51;;;;;;;5.78;1.15;;;32.20;28.90;;;;;;6280834;22;20121;-86
2022/05/14 14:06:41;;;;;;;3.38;1.00;;;33.60;32.10;;;;;;6280399;22;20053;-88
2022/05/14 14:09:32;;;;;;;3.75;0.85;;;34.20;31.40;;;;;;6280565;22;20358;-87
2022/05/14 14:12:23;;;;;;;2.13;1.00;;;33.80;32.50;;;;;;6276414;22;20103;-89
2022/05/14 14:15:15;;;;;;;4.93;1.00;;;32.90;31.60;;;;;;6275702;22;20031;-87
2022/05/14 14:18:04;;;;;;;;;;;32.60;33.90;;;;;;6278176;22;20027;-89
2022/05/14 14:20:56;;;;;;;3.38;1.02;;;33.30;33.80;;;;;;6276189;22;19919;-90
2022/05/14 14:23:48;;;;;;;2.28;0.90;;;33.50;31.70;;;;;;6277561;22;20062;-91
2022/05/14 14:26:37;;;;;;;3.85;0.93;;;31.90;34.30;;;;;;6277127;22;20020;-88
2022/05/14 14:29:27;;;;;;;2.47;0.80;;;31.00;34.10;;;;;;6276175;22;20035;-88
2022/05/14 14:32:14;;;;;;;6.93;1.33;;;30.80;36.40;;;;;;6276591;22;20023;-89
2022/05/14 14:35:02;;;;;;;4.28;0.90;;;31.00;37.10;;;;;;6279497;22;20031;-89
2022/05/14 14:37:49;;;;;;;6.97;1.10;;;30.70;36.70;;;;;;6277581;22;20054;-89
2022/05/14 14:40:39;;;;;;;2.53;1.10;;;31.10;33.90;;;;;;6276169;22;20023;-88
2022/05/14 14:43:26;;;;;;;4.50;1.15;;;32.00;35.30;;;;;;6277813;22;20399;-88
2022/05/14 14:46:14;;;;;;;3.60;0.75;;;32.10;35.30;;;;;;6255099;22;20023;-89
2022/05/14 14:49:07;;;;;;;2.22;1.08;;;32.40;31.70;;;;;;6274992;22;20138;-90
2022/05/14 14:51:54;;;;;;;4.75;1.30;;;32.40;34.30;;;;;;6276474;22;20019;-89
2022/05/14 14:54:44;;;;;;;5.07;1.33;;;31.40;33.90;;;;;;6276817;22;20020;-85
2022/05/14 14:57:32;;;;;;;2.35;1.05;;;30.20;36.90;;;;;;6276008;22;20141;-87
2022/05/14 15:00:34;;;;;;;6.43;1.25;;;28.50;39.10;;;;;;6275937;22;20024;-87
2022/05/14 15:03:32;;;;;;;6.70;1.30;;;28.40;37.70;;;;;;6256325;22;20051;-87
2022/05/14 15:06:20;;;;;;;2.63;1.40;;;28.50;39.10;;;;;;6282377;22;20020;-90
2022/05/14 15:09:10;;;;;;;4.07;1.40;;;27.40;41.00;;;;;;6295541;22;20007;-83
2022/05/14 15:11:57;;;;;;;2.85;0.85;;;26.90;42.10;;;;;;6293202;22;20031;-86
2022/05/14 15:14:44;;;;;;;4.07;1.08;;;26.80;42.90;;;;;;6284072;22;20583;-86
2022/05/14 15:17:32;;;;;;;4.78;1.00;;;26.50;43.40;;;;;;6253825;22;20086;-87
2022/05/14 15:20:19;;;;;;;6.72;1.15;;;26.20;43.30;;;;;;6253945;22;20055;-88
2022/05/14 15:23:07;;;;;;;2.72;0.85;;;25.90;45.70;;;;;;6279752;22;20481;-89
2022/05/14 15:26:01;;;;;;;3.83;1.27;;;25.70;44.50;;;;;;6283303;22;20020;-89
2022/05/14 15:28:51;;;;;;;3.65;1.17;;;25.50;44.00;;;;;;6260573;22;20046;-88
2022/05/14 15:32:03;;;;;;;4.60;1.02;;;25.10;45.80;;;;;;6258880;22;20019;-87
2022/05/14 15:34:51;;;;;;;2.78;0.88;;;25.20;46.30;;;;;;6255954;22;20024;-88
2022/05/14 15:37:40;;;;;;;1.98;0.93;;;24.70;45.10;;;;;;6258889;22;20051;-88
2022/05/14 15:40:29;;;;;;;5.30;1.88;;;24.50;48.20;;;;;;6283498;22;20089;-89
2022/05/14 15:43:21;;;;;;;3.80;1.33;;;24.70;45.10;;;;;;6278113;22;20035;-88
2022/05/14 15:46:14;;;;;;;3.63;1.20;;;24.50;46.50;;;;;;6280146;22;20020;-87
2022/05/14 15:49:12;;;;;;;4.93;1.75;;;24.00;46.80;;;;;;6277446;22;20119;-88
2022/05/14 15:52:01;;;;;;;4.72;1.23;;;23.60;48.30;;;;;;6256779;22;20441;-89